This is the latest recevied weather packets stored in our database for station/object Kisslegg. If no packets are shown the sender has not sent any weather packets the latest 10 day(s).
| Time | Temp. | Humidity | Pressure | Rain* | Wind** | Luminosity | Snow |
|---|---|---|---|---|---|---|---|
| 1777737733 | 22.78° C | 37% | 1017 hPa | 0 mm | - | - | - |
| 1777735930 | 24.44° C | 33% | 1017.1 hPa | 0 mm | - | - | - |
| 1777734130 | 23.89° C | 33% | 1017.6 hPa | 0 mm | - | - | - |
| 1777732330 | 23.33° C | 33% | 1018 hPa | 0 mm | - | - | - |
| 1777730530 | 23.33° C | 31% | 1018.3 hPa | 0 mm | - | - | - |
| 1777728731 | 25° C | 30% | 1018.7 hPa | 0 mm | - | - | - |
| 1777726930 | 24.44° C | 34% | 1019.2 hPa | 0 mm | - | - | - |
| 1777725131 | 23.89° C | 38% | 1019.6 hPa | 0 mm | - | - | - |
| 1777723330 | 23.33° C | 40% | 1019.9 hPa | 0 mm | - | - | - |
| 1777721531 | 22.78° C | 39% | 1020.4 hPa | 0 mm | - | - | - |
| 1777719730 | 22.22° C | 43% | 1020.8 hPa | 0 mm | - | - | - |
| 1777717930 | 21.67° C | 44% | 1021.2 hPa | 0 mm | - | - | - |
| 1777716131 | 20.56° C | 50% | 1021.5 hPa | 0 mm | - | - | - |
| 1777714331 | 19.44° C | 49% | 1021.8 hPa | 0 mm | - | - | - |
| 1777712530 | 18.89° C | 52% | 1022 hPa | 0 mm | - | - | - |
| 1777710731 | 17.78° C | 55% | 1022.2 hPa | 0 mm | - | - | - |
| 1777708931 | 16.67° C | 57% | 1022.4 hPa | 0 mm | - | - | - |
| 1777707130 | 15° C | 64% | 1022.6 hPa | 0 mm | - | - | - |
| 1777705333 | 13.33° C | 66% | 1022.7 hPa | 0 mm | - | - | - |
| 1777703532 | 12.22° C | 69% | 1022.7 hPa | 0 mm | - | - | - |
| 1777701731 | 10.56° C | 72% | 1022.7 hPa | 0 mm | - | - | - |
| 1777699931 | 9.44° C | 73% | 1022.7 hPa | 0 mm | - | - | - |
| 1777698131 | 8.33° C | 74% | 1022.5 hPa | 0 mm | - | - | - |
| 1777696331 | 7.78° C | 73% | 1022.5 hPa | 0 mm | - | - | - |
| 1777694533 | 8.33° C | 71% | 1022.4 hPa | 0 mm | - | - | - |
* Rain since midnight (hover to see other rain measurements)
** Current wind speed in m/s (hover to see current wind gust speed)